Darstellungsparameter: Aktuell verwendete Einstellungen:
Skalierung der Graphiken ... ?
xyx+y,   Skalierungsfaktor:      Skalierung: Modus: x, Faktor: 1
Darstellungszeitraum ... ?
Vom - - bis: - -   Zeitraum: 28.02.2019 - 28.02.2019
Min/Max/Avg-Anzeige ... ?
Zeige MMA aktuell
Zeige MMA Monat
Zeige MMA alles
Zeige --A aktuell
Zeige --A Monat
Zeige --A alles
Keine MMA-Anzeige
MMA:
Keine MMA-Graphiken
MMA-Basis: 28.02.2019 - 28.02.2019
Quicknavigation für Darstellung... ?
Tage:      1T, 2T, 3T, 5T -1T -2T -3T -5T +1T +2T +3T +5T
Wochen: 1W, 2W, 3W -1W -2W -3W +1W +2W +3W
Monate: 1M, 3M, 6M -1M -3M -6M +1M +3M +6M
Jahre:    1J, 3J, 5J, 10J -1J -3J -5J -10J +1J +3J +5J +10J
Nutze für die Darstellung ... ?
Originaldaten oder Mittelwerte auf ...
Stundenbasis Tagesbasis Wochenbasis
Monatsbasis Jahresbasis      Datenbasis: Original-Daten
Darstellen als:
Statistik (Auto) Statistik J:M      Darstellung:
Zur Graphik,    zurück zur Übersicht aller Sensoren.
 
Tabellarische Datenbersicht: ?
 
Sensor: Nr:Datum:Temp:Feuchte:Taupunkt:
Aussen-T/F 1 28-02-2019 00:00:00 4.5 C 84 % 2.04 C
2 28-02-2019 00:05:00 4.6 C 85 % 2.3 C
3 28-02-2019 00:10:00 4.7 C 85 % 2.4 C
4 28-02-2019 00:15:00 4.8 C 85 % 2.5 C
5 28-02-2019 00:20:00 5.1 C 85 % 2.79 C
6 28-02-2019 00:25:00 5.4 C 84 % 2.92 C
7 28-02-2019 00:30:00 5.6 C 83 % 2.95 C
8 28-02-2019 00:35:00 5.7 C 82 % 2.87 C
9 28-02-2019 00:40:00 5.8 C 82 % 2.97 C
10 28-02-2019 00:45:00 5.9 C 81 % 2.9 C
11 28-02-2019 00:50:00 6 C 80 % 2.82 C
12 28-02-2019 00:55:00 6.1 C 80 % 2.92 C
13 28-02-2019 01:00:00 6.1 C 80 % 2.92 C
14 28-02-2019 01:05:00 5.9 C 79 % 2.54 C
15 28-02-2019 01:10:00 5.8 C 79 % 2.45 C
16 28-02-2019 01:15:00 5.4 C 79 % 2.06 C
17 28-02-2019 01:20:00 5.2 C 81 % 2.21 C
18 28-02-2019 01:25:00 5 C 81 % 2.02 C
19 28-02-2019 01:30:00 4.7 C 82 % 1.9 C
20 28-02-2019 01:35:00 4.5 C 83 % 1.87 C
21 28-02-2019 01:40:00 4.3 C 83 % 1.67 C
22 28-02-2019 01:45:00 4.1 C 84 % 1.65 C
23 28-02-2019 01:50:00 4.1 C 85 % 1.81 C
24 28-02-2019 01:55:00 4.1 C 86 % 1.97 C
25 28-02-2019 02:00:00 4.1 C 86 % 1.97 C
Sensor: Nr:Datum:Temp:Feuchte:Taupunkt:
Aussen-T/F 26 28-02-2019 02:05:00 4.1 C 86 % 1.97 C
27 28-02-2019 02:10:00 4.2 C 86 % 2.07 C
28 28-02-2019 02:15:00 4.1 C 85 % 1.81 C
29 28-02-2019 02:20:00 3.8 C 85 % 1.52 C
30 28-02-2019 02:25:00 3.6 C 86 % 1.48 C
31 28-02-2019 02:30:00 3.4 C 86 % 1.29 C
32 28-02-2019 02:35:00 3.3 C 87 % 1.35 C
33 28-02-2019 02:40:00 3.3 C 88 % 1.51 C
34 28-02-2019 02:45:00 3.4 C 89 % 1.76 C
35 28-02-2019 02:50:00 3.4 C 89 % 1.76 C
36 28-02-2019 02:55:00 3.4 C 88 % 1.61 C
37 28-02-2019 03:00:00 3.3 C 88 % 1.51 C
38 28-02-2019 03:05:00 3.1 C 87 % 1.15 C
39 28-02-2019 03:10:00 2.9 C 88 % 1.11 C
40 28-02-2019 03:15:00 2.9 C 89 % 1.27 C
41 28-02-2019 03:20:00 2.8 C 89 % 1.17 C
42 28-02-2019 03:25:00 2.8 C 90 % 1.33 C
43 28-02-2019 03:30:00 2.9 C 90 % 1.43 C
44 28-02-2019 03:35:00 3 C 90 % 1.52 C
45 28-02-2019 03:40:00 3.1 C 90 % 1.62 C
46 28-02-2019 03:45:00 3 C 89 % 1.37 C
47 28-02-2019 03:50:00 2.8 C 89 % 1.17 C
48 28-02-2019 03:55:00 2.7 C 89 % 1.07 C
49 28-02-2019 04:00:00 2.6 C 89 % 0.97 C
50 28-02-2019 04:05:00 2.4 C 89 % 0.78 C
Sensor: Nr:Datum:Temp:Feuchte:Taupunkt:
Aussen-T/F 51 28-02-2019 04:10:00 2.2 C 88 % 0.42 C
52 28-02-2019 04:15:00 2 C 89 % 0.38 C
53 28-02-2019 04:20:00 1.9 C 90 % 0.44 C
54 28-02-2019 04:25:00 2.1 C 91 % 0.79 C
55 28-02-2019 04:30:00 2.3 C 92 % 1.14 C
56 28-02-2019 04:35:00 2.3 C 91 % 0.99 C
57 28-02-2019 04:40:00 2.3 C 91 % 0.99 C
58 28-02-2019 04:45:00 2.3 C 91 % 0.99 C
59 28-02-2019 04:50:00 2.4 C 92 % 1.24 C
60 28-02-2019 04:55:00 2.5 C 91 % 1.18 C
61 28-02-2019 05:00:00 2.6 C 91 % 1.28 C
62 28-02-2019 05:05:00 2.5 C 91 % 1.18 C
63 28-02-2019 05:10:00 2.5 C 91 % 1.18 C
64 28-02-2019 05:15:00 2.4 C 90 % 0.93 C
65 28-02-2019 05:20:00 2.3 C 91 % 0.99 C
66 28-02-2019 05:25:00 2.3 C 91 % 0.99 C
67 28-02-2019 05:30:00 2.3 C 91 % 0.99 C
68 28-02-2019 05:35:00 2.3 C 91 % 0.99 C
69 28-02-2019 05:40:00 2.3 C 91 % 0.99 C
70 28-02-2019 05:45:00 2.3 C 91 % 0.99 C
71 28-02-2019 05:50:00 2.2 C 91 % 0.89 C
72 28-02-2019 05:55:00 2.3 C 92 % 1.14 C
73 28-02-2019 06:00:00 2.5 C 92 % 1.34 C
74 28-02-2019 06:05:00 2.7 C 92 % 1.53 C
75 28-02-2019 06:10:00 2.7 C 92 % 1.53 C
Sensor: Nr:Datum:Temp:Feuchte:Taupunkt:
Aussen-T/F 76 28-02-2019 06:15:00 2.7 C 91 % 1.38 C
77 28-02-2019 06:20:00 2.6 C 91 % 1.28 C
78 28-02-2019 06:25:00 2.7 C 91 % 1.38 C
79 28-02-2019 06:30:00 2.9 C 92 % 1.73 C
80 28-02-2019 06:35:00 3.4 C 92 % 2.23 C
81 28-02-2019 06:40:00 3.8 C 90 % 2.31 C
82 28-02-2019 06:45:00 4.2 C 88 % 2.39 C
83 28-02-2019 06:50:00 4.2 C 87 % 2.23 C
84 28-02-2019 06:55:00 4.2 C 87 % 2.23 C
85 28-02-2019 07:00:00 4.2 C 87 % 2.23 C
86 28-02-2019 07:05:00 4.2 C 86 % 2.07 C
87 28-02-2019 07:10:00 4.1 C 86 % 1.97 C
88 28-02-2019 07:15:00 3.9 C 86 % 1.78 C
89 28-02-2019 07:20:00 3.9 C 87 % 1.94 C
90 28-02-2019 07:25:00 3.8 C 87 % 1.84 C
91 28-02-2019 07:30:00 3.8 C 87 % 1.84 C
92 28-02-2019 07:35:00 3.7 C 87 % 1.74 C
93 28-02-2019 07:40:00 3.6 C 88 % 1.8 C
94 28-02-2019 07:45:00 3.4 C 87 % 1.45 C
95 28-02-2019 07:50:00 3.3 C 87 % 1.35 C
96 28-02-2019 07:55:00 3.1 C 87 % 1.15 C
97 28-02-2019 08:00:00 2.9 C 88 % 1.11 C
98 28-02-2019 08:05:00 2.7 C 88 % 0.92 C
99 28-02-2019 08:10:00 2.7 C 88 % 0.92 C
100 28-02-2019 08:15:00 2.6 C 89 % 0.97 C
Sensor: Nr:Datum:Temp:Feuchte:Taupunkt:
Aussen-T/F 101 28-02-2019 08:20:00 2.7 C 90 % 1.23 C
102 28-02-2019 08:25:00 2.8 C 90 % 1.33 C
103 28-02-2019 08:30:00 2.9 C 91 % 1.58 C
104 28-02-2019 08:35:00 3.1 C 91 % 1.78 C
105 28-02-2019 08:40:00 3.3 C 91 % 1.98 C
106 28-02-2019 08:45:00 3.6 C 92 % 2.42 C
107 28-02-2019 08:50:00 3.7 C 91 % 2.37 C
108 28-02-2019 08:55:00 3.9 C 91 % 2.57 C
109 28-02-2019 09:00:00 4.1 C 91 % 2.77 C
110 28-02-2019 09:05:00 4.2 C 90 % 2.71 C
111 28-02-2019 09:10:00 4.3 C 90 % 2.81 C
112 28-02-2019 09:15:00 4.4 C 89 % 2.75 C
113 28-02-2019 09:20:00 4.5 C 89 % 2.85 C
114 28-02-2019 09:25:00 4.6 C 89 % 2.95 C
115 28-02-2019 09:30:00 4.7 C 89 % 3.05 C
116 28-02-2019 09:35:00 4.8 C 88 % 2.99 C
117 28-02-2019 09:40:00 4.9 C 88 % 3.08 C
118 28-02-2019 09:45:00 5.1 C 88 % 3.28 C
119 28-02-2019 09:50:00 5.2 C 88 % 3.38 C
120 28-02-2019 09:55:00 5.4 C 89 % 3.74 C
121 28-02-2019 10:00:00 5.6 C 89 % 3.93 C
122 28-02-2019 10:05:00 5.8 C 89 % 4.13 C
123 28-02-2019 10:10:00 6.3 C 88 % 4.46 C
124 28-02-2019 10:15:00 6.7 C 88 % 4.86 C
125 28-02-2019 10:20:00 7.1 C 86 % 4.92 C
Sensor: Nr:Datum:Temp:Feuchte:Taupunkt:
Aussen-T/F 126 28-02-2019 10:25:00 7.5 C 85 % 5.15 C
127 28-02-2019 10:30:00 7.9 C 84 % 5.37 C
128 28-02-2019 10:35:00 8.4 C 83 % 5.69 C
129 28-02-2019 10:40:00 8.7 C 82 % 5.8 C
130 28-02-2019 10:45:00 9 C 81 % 5.92 C
131 28-02-2019 10:50:00 9.3 C 80 % 6.03 C
132 28-02-2019 10:55:00 9.6 C 79 % 6.14 C
133 28-02-2019 11:00:00 9.9 C 78 % 6.25 C
134 28-02-2019 11:05:00 10.2 C 77 % 6.35 C
135 28-02-2019 11:10:00 10.6 C 76 % 6.55 C
136 28-02-2019 11:15:00 10.9 C 75 % 6.65 C
137 28-02-2019 11:20:00 11.3 C 73 % 6.64 C
138 28-02-2019 11:25:00 11.7 C 72 % 6.83 C
139 28-02-2019 11:30:00 11.9 C 71 % 6.82 C
140 28-02-2019 11:35:00 12.2 C 70 % 6.9 C
141 28-02-2019 11:40:00 12.4 C 69 % 6.88 C
142 28-02-2019 11:45:00 12.5 C 69 % 6.97 C
143 28-02-2019 11:50:00 12.6 C 69 % 7.07 C
144 28-02-2019 11:55:00 12.6 C 69 % 7.07 C
145 28-02-2019 12:00:00 12.7 C 68 % 6.95 C
146 28-02-2019 12:05:00 12.8 C 69 % 7.26 C
147 28-02-2019 12:10:00 12.8 C 68 % 7.05 C
148 28-02-2019 12:15:00 12.9 C 68 % 7.14 C
149 28-02-2019 12:20:00 13 C 68 % 7.24 C
150 28-02-2019 12:25:00 13.1 C 67 % 7.12 C
Sensor: Nr:Datum:Temp:Feuchte:Taupunkt:
Aussen-T/F 151 28-02-2019 12:30:00 13.2 C 67 % 7.21 C
152 28-02-2019 12:35:00 13.4 C 68 % 7.62 C
153 28-02-2019 12:40:00 13.7 C 66 % 7.47 C
154 28-02-2019 12:45:00 13.8 C 66 % 7.57 C
155 28-02-2019 12:50:00 13.9 C 66 % 7.66 C
156 28-02-2019 12:55:00 13.9 C 66 % 7.66 C
157 28-02-2019 13:00:00 14.1 C 66 % 7.85 C
158 28-02-2019 13:05:00 14.2 C 65 % 7.72 C
159 28-02-2019 13:10:00 14.3 C 66 % 8.04 C
160 28-02-2019 13:15:00 14.5 C 64 % 7.78 C
161 28-02-2019 13:20:00 14.7 C 65 % 8.2 C
162 28-02-2019 13:25:00 14.9 C 63 % 7.93 C
163 28-02-2019 13:30:00 15.1 C 64 % 8.35 C
164 28-02-2019 13:35:00 15.2 C 63 % 8.21 C
165 28-02-2019 13:40:00 15.4 C 62 % 8.16 C
166 28-02-2019 13:45:00 15.6 C 62 % 8.35 C
167 28-02-2019 13:50:00 15.7 C 61 % 8.21 C
168 28-02-2019 13:55:00 15.8 C 61 % 8.3 C
169 28-02-2019 14:00:00 16 C 62 % 8.73 C
170 28-02-2019 14:05:00 16.2 C 61 % 8.68 C
171 28-02-2019 14:10:00 16.3 C 61 % 8.77 C
172 28-02-2019 14:15:00 16.4 C 61 % 8.87 C
173 28-02-2019 14:20:00 16.4 C 61 % 8.87 C
174 28-02-2019 14:25:00 16.5 C 61 % 8.96 C
175 28-02-2019 14:30:00 16.6 C 61 % 9.06 C
Sensor: Nr:Datum:Temp:Feuchte:Taupunkt:
Aussen-T/F 176 28-02-2019 14:35:00 16.7 C 61 % 9.15 C
177 28-02-2019 14:40:00 16.8 C 61 % 9.24 C
178 28-02-2019 14:45:00 17.1 C 60 % 9.28 C
179 28-02-2019 14:50:00 17.2 C 60 % 9.37 C
180 28-02-2019 14:55:00 17.2 C 60 % 9.37 C
181 28-02-2019 15:00:00 17.2 C 60 % 9.37 C
182 28-02-2019 15:05:00 17.1 C 60 % 9.28 C
183 28-02-2019 15:10:00 17 C 62 % 9.67 C
184 28-02-2019 15:15:00 17 C 61 % 9.43 C
185 28-02-2019 15:20:00 16.9 C 61 % 9.34 C
186 28-02-2019 15:25:00 16.8 C 62 % 9.49 C
187 28-02-2019 15:30:00 16.8 C 62 % 9.49 C
188 28-02-2019 15:35:00 16.7 C 62 % 9.39 C
189 28-02-2019 15:40:00 16.7 C 60 % 8.9 C
190 28-02-2019 15:45:00 16.5 C 60 % 8.72 C
191 28-02-2019 15:50:00 16.3 C 61 % 8.77 C
192 28-02-2019 15:55:00 16.2 C 61 % 8.68 C
193 28-02-2019 16:00:00 16.2 C 62 % 8.92 C
194 28-02-2019 16:05:00 16.2 C 64 % 9.39 C
195 28-02-2019 16:10:00 16.1 C 65 % 9.53 C
196 28-02-2019 16:15:00 16 C 66 % 9.66 C
197 28-02-2019 16:20:00 15.9 C 66 % 9.56 C
198 28-02-2019 16:25:00 15.7 C 66 % 9.37 C
199 28-02-2019 16:30:00 15.5 C 67 % 9.41 C
200 28-02-2019 16:35:00 15.3 C 63 % 8.31 C
Sensor: Nr:Datum:Temp:Feuchte:Taupunkt:
Aussen-T/F 201 28-02-2019 16:40:00 14.7 C 60 % 7.03 C
202 28-02-2019 16:45:00 14 C 61 % 6.61 C
203 28-02-2019 16:50:00 13.6 C 63 % 6.7 C
204 28-02-2019 16:55:00 13.3 C 64 % 6.64 C
205 28-02-2019 17:00:00 13.1 C 64 % 6.45 C
206 28-02-2019 17:05:00 13 C 65 % 6.58 C
207 28-02-2019 17:10:00 12.9 C 66 % 6.71 C
208 28-02-2019 17:15:00 12.9 C 67 % 6.93 C
209 28-02-2019 17:20:00 12.8 C 67 % 6.83 C
210 28-02-2019 17:25:00 12.8 C 68 % 7.05 C
211 28-02-2019 17:30:00 12.7 C 69 % 7.17 C
212 28-02-2019 17:35:00 12.6 C 69 % 7.07 C
213 28-02-2019 17:40:00 12.6 C 69 % 7.07 C
214 28-02-2019 17:45:00 12.5 C 69 % 6.97 C
215 28-02-2019 17:50:00 12.5 C 70 % 7.18 C
216 28-02-2019 17:55:00 12.4 C 70 % 7.09 C
217 28-02-2019 18:00:00 12.4 C 70 % 7.09 C
218 28-02-2019 18:05:00 12.4 C 70 % 7.09 C
219 28-02-2019 18:10:00 12.3 C 71 % 7.2 C
220 28-02-2019 18:15:00 12.3 C 71 % 7.2 C
221 28-02-2019 18:20:00 12.2 C 71 % 7.1 C
222 28-02-2019 18:25:00 12.2 C 71 % 7.1 C
223 28-02-2019 18:30:00 12.1 C 71 % 7.01 C
224 28-02-2019 18:35:00 12.1 C 72 % 7.21 C
225 28-02-2019 18:40:00 12 C 72 % 7.12 C
Sensor: Nr:Datum:Temp:Feuchte:Taupunkt:
Aussen-T/F 226 28-02-2019 18:45:00 11.9 C 73 % 7.22 C
227 28-02-2019 18:50:00 11.9 C 73 % 7.22 C
228 28-02-2019 18:55:00 11.8 C 73 % 7.12 C
229 28-02-2019 19:00:00 11.8 C 74 % 7.32 C
230 28-02-2019 19:05:00 11.7 C 74 % 7.23 C
231 28-02-2019 19:10:00 11.6 C 74 % 7.13 C
232 28-02-2019 19:15:00 11.4 C 75 % 7.13 C
233 28-02-2019 19:20:00 11.3 C 75 % 7.04 C
234 28-02-2019 19:25:00 11.2 C 75 % 6.94 C
235 28-02-2019 19:30:00 11.1 C 76 % 7.04 C
236 28-02-2019 19:35:00 11.1 C 76 % 7.04 C
237 28-02-2019 19:40:00 11 C 77 % 7.13 C
238 28-02-2019 19:45:00 11 C 77 % 7.13 C
239 28-02-2019 19:50:00 11 C 77 % 7.13 C
240 28-02-2019 19:55:00 11 C 78 % 7.32 C
241 28-02-2019 20:00:00 11 C 78 % 7.32 C
242 28-02-2019 20:05:00 11.1 C 78 % 7.41 C
243 28-02-2019 20:10:00 11.1 C 78 % 7.41 C
244 28-02-2019 20:15:00 11.1 C 78 % 7.41 C
245 28-02-2019 20:20:00 11.1 C 78 % 7.41 C
246 28-02-2019 20:25:00 11.1 C 79 % 7.6 C
247 28-02-2019 20:30:00 11.1 C 79 % 7.6 C
248 28-02-2019 20:35:00 11.1 C 79 % 7.6 C
249 28-02-2019 20:40:00 11.1 C 79 % 7.6 C
250 28-02-2019 20:45:00 11.1 C 79 % 7.6 C
Sensor: Nr:Datum:Temp:Feuchte:Taupunkt:
Aussen-T/F 251 28-02-2019 20:50:00 11.1 C 79 % 7.6 C
252 28-02-2019 20:55:00 11.1 C 79 % 7.6 C
253 28-02-2019 21:00:00 11.1 C 80 % 7.79 C
254 28-02-2019 21:05:00 11.1 C 80 % 7.79 C
255 28-02-2019 21:10:00 11.1 C 81 % 7.97 C
256 28-02-2019 21:15:00 11 C 81 % 7.87 C
257 28-02-2019 21:20:00 10.9 C 81 % 7.77 C
258 28-02-2019 21:25:00 10.9 C 81 % 7.77 C
259 28-02-2019 21:30:00 10.9 C 81 % 7.77 C
260 28-02-2019 21:35:00 10.9 C 81 % 7.77 C
261 28-02-2019 21:40:00 10.9 C 81 % 7.77 C
262 28-02-2019 21:45:00 10.9 C 81 % 7.77 C
263 28-02-2019 21:50:00 11 C 81 % 7.87 C
264 28-02-2019 21:55:00 11 C 80 % 7.69 C
265 28-02-2019 22:00:00 10.9 C 80 % 7.59 C
266 28-02-2019 22:05:00 10.9 C 81 % 7.77 C
267 28-02-2019 22:10:00 10.9 C 81 % 7.77 C
268 28-02-2019 22:15:00 10.9 C 81 % 7.77 C
269 28-02-2019 22:20:00 10.9 C 82 % 7.95 C
270 28-02-2019 22:25:00 10.9 C 82 % 7.95 C
271 28-02-2019 22:30:00 10.8 C 82 % 7.85 C
272 28-02-2019 22:35:00 10.8 C 82 % 7.85 C
273 28-02-2019 22:40:00 10.8 C 82 % 7.85 C
274 28-02-2019 22:45:00 10.8 C 82 % 7.85 C
275 28-02-2019 22:50:00 10.8 C 83 % 8.03 C
Sensor: Nr:Datum:Temp:Feuchte:Taupunkt:
Aussen-T/F 276 28-02-2019 22:55:00 10.7 C 83 % 7.93 C
277 28-02-2019 23:00:00 10.7 C 83 % 7.93 C
278 28-02-2019 23:05:00 10.7 C 83 % 7.93 C
279 28-02-2019 23:10:00 10.7 C 84 % 8.11 C
280 28-02-2019 23:15:00 10.6 C 85 % 8.19 C
281 28-02-2019 23:20:00 10.6 C 85 % 8.19 C
282 28-02-2019 23:25:00 10.4 C 86 % 8.16 C
283 28-02-2019 23:30:00 10.3 C 87 % 8.23 C
284 28-02-2019 23:35:00 10.2 C 88 % 8.3 C
285 28-02-2019 23:40:00 9.9 C 89 % 8.17 C
286 28-02-2019 23:45:00 9.8 C 89 % 8.08 C
287 28-02-2019 23:50:00 9.7 C 90 % 8.14 C
288 28-02-2019 23:55:00 9.6 C 90 % 8.04 C

Legende:
   Min
   Max


Maximal/Minimal-Werte vom 28.02.2019 - 28.02.2019

Sensor Min Max Avg
Temp
(Aussen-T/F)
1.9 °C
28-02-2019  04:20:00
17.2 °C
28-02-2019  14:50:00
8.82 °C
Feuchte
(Aussen-T/F)
60 %
28-02-2019  14:45:00
92 %
28-02-2019  04:30:00
78.92 %
Taupunkt
(Aussen-T/F)
0.38 C
28-02-2019  04:15:00
9.67 C
28-02-2019  15:10:00
5.16 C

Die Daten stammen von einer Davis Vantage Pro 2 Wetter-Station und werden unter Linux mit der Software wview2wettercgi und aufbereitet. Alle Angaben erfolgen ohne Gewähr für ihre Vollständigkeit oder Richtigkeit.
Kontakt: Rainer Krienke krienke@uni-koblenz.de . Meine Webseiten an der Uni Koblenz oder privat.
Version: $Revision: 0.78 $